Time;durP1;ratioP1;P1;durP2;ratioP2;P2;SDS_P1;SDS_P2;PMS_P1;PMS_P2;Temp;Humidity;BMP_temperature;BMP_pressure;BME280_temperature;BME280_humidity;BME280_pressure;Samples;Min_cycle;Max_cycle;Signal;HPM_P1;HPM_P2
2023/09/26 00:02:20;;;;;;;6.82;3.30;;;14.40;72.60;;;;;;9162756;19;20014;-67
2023/09/26 00:05:31;;;;;;;6.05;3.45;;;14.40;72.60;;;;;;9164382;19;20775;-69
2023/09/26 00:08:37;;;;;;;7.97;4.30;;;14.40;72.70;;;;;;9163823;19;20021;-67
2023/09/26 00:11:45;;;;;;;4.22;3.22;;;14.40;73.00;;;;;;9163509;19;20014;-70
2023/09/26 00:14:51;;;;;;;5.80;3.40;;;14.30;74.00;;;;;;9162898;19;20591;-69
2023/09/26 00:17:59;;;;;;;5.90;3.42;;;14.30;72.60;;;;;;9166011;19;20014;-70
2023/09/26 00:21:07;;;;;;;5.13;3.53;;;14.80;74.60;;;;;;9163174;19;20026;-68
2023/09/26 00:24:15;;;;;;;8.30;3.83;;;14.40;77.50;;;;;;9164216;19;20015;-69
2023/09/26 00:27:20;;;;;;;5.32;3.55;;;14.50;74.80;;;;;;9163871;19;20070;-68
2023/09/26 00:30:28;;;;;;;7.88;3.53;;;14.20;73.00;;;;;;9164830;19;20415;-69
2023/09/26 00:33:33;;;;;;;10.60;4.35;;;14.20;73.00;;;;;;9164481;19;20011;-68
2023/09/26 00:36:44;;;;;;;6.45;3.95;;;14.20;73.00;;;;;;9165811;19;20021;-70
2023/09/26 00:39:50;;;;;;;7.78;3.50;;;14.10;73.30;;;;;;9165489;19;20018;-69
2023/09/26 00:43:00;;;;;;;7.22;3.72;;;14.10;73.80;;;;;;9169023;19;20771;-70
2023/09/26 00:46:08;;;;;;;5.35;3.80;;;14.10;74.00;;;;;;9172678;19;20021;-66
2023/09/26 00:49:16;;;;;;;8.40;4.03;;;14.20;77.10;;;;;;9171688;19;20022;-69
2023/09/26 00:52:25;;;;;;;6.35;3.63;;;14.00;73.00;;;;;;9173549;19;20014;-70
2023/09/26 00:55:32;;;;;;;5.43;3.38;;;14.00;73.20;;;;;;9166859;19;20015;-69
2023/09/26 00:58:39;;;;;;;6.05;4.10;;;14.00;73.10;;;;;;9173271;19;20010;-70
2023/09/26 01:02:04;;;;;;;5.82;3.95;;;13.90;73.10;;;;;;9173652;19;20030;-71
2023/09/26 01:05:11;;;;;;;7.20;3.65;;;14.00;73.20;;;;;;9170684;19;20011;-69
2023/09/26 01:08:35;;;;;;;6.50;3.90;;;13.90;73.20;;;;;;9173814;19;20448;-68
2023/09/26 01:11:40;;;;;;;5.78;3.72;;;13.90;74.00;;;;;;9167874;19;20018;-68
2023/09/26 01:14:48;;;;;;;8.75;3.85;;;13.80;73.20;;;;;;9173118;19;20014;-68
2023/09/26 01:17:53;;;;;;;8.82;4.28;;;13.90;73.40;;;;;;9170642;19;20443;-66
2023/09/26 01:21:01;;;;;;;7.72;4.22;;;13.80;73.40;;;;;;9172134;19;20023;-70
2023/09/26 01:24:09;;;;;;;6.28;4.57;;;13.80;74.10;;;;;;9171388;19;20250;-68
2023/09/26 01:27:16;;;;;;;6.10;4.13;;;13.80;73.40;;;;;;9171728;19;20437;-68
2023/09/26 01:30:22;;;;;;;8.07;4.53;;;13.80;73.50;;;;;;9170406;19;20495;-66
2023/09/26 01:33:29;;;;;;;12.85;4.78;;;13.70;73.50;;;;;;9171462;19;20011;-66
2023/09/26 01:36:35;;;;;;;7.60;4.55;;;13.70;73.60;;;;;;9169368;19;20021;-70
2023/09/26 01:39:45;;;;;;;9.15;4.57;;;13.70;73.60;;;;;;9172250;19;20010;-69
2023/09/26 01:42:50;;;;;;;6.63;4.25;;;13.70;73.70;;;;;;9170579;19;20010;-70
2023/09/26 01:45:58;;;;;;;9.95;4.57;;;13.60;73.60;;;;;;9170798;19;20014;-70
2023/09/26 01:49:04;;;;;;;7.53;4.25;;;13.70;73.80;;;;;;9170236;19;20022;-71
2023/09/26 01:52:12;;;;;;;5.78;3.83;;;13.60;73.80;;;;;;9166557;19;20171;-67
2023/09/26 01:55:21;;;;;;;10.95;4.13;;;13.70;73.90;;;;;;9165876;19;20006;-70
2023/09/26 01:58:28;;;;;;;7.57;4.13;;;13.60;73.90;;;;;;9171788;19;20007;-67
2023/09/26 02:01:34;;;;;;;9.40;4.53;;;13.60;73.90;;;;;;9169042;19;20014;-69
2023/09/26 02:04:41;;;;;;;6.82;4.10;;;13.60;73.90;;;;;;9170402;19;20003;-65
2023/09/26 02:07:48;;;;;;;6.45;4.05;;;13.60;73.90;;;;;;9171092;19;20022;-70
2023/09/26 02:10:58;;;;;;;8.38;4.85;;;13.60;74.00;;;;;;9169812;19;20018;-69
2023/09/26 02:14:04;;;;;;;5.88;4.45;;;13.50;74.00;;;;;;9171489;19;20018;-71
2023/09/26 02:17:11;;;;;;;10.85;4.70;;;13.60;74.10;;;;;;9169763;19;20026;-66
2023/09/26 02:20:19;;;;;;;8.63;4.53;;;13.40;74.00;;;;;;9168373;19;20025;-70
2023/09/26 02:23:27;;;;;;;9.38;4.03;;;13.50;74.10;;;;;;9170769;19;20022;-70
2023/09/26 02:26:35;;;;;;;7.25;4.13;;;13.50;74.10;;;;;;9172225;19;20022;-68
2023/09/26 02:29:44;;;;;;;10.52;4.43;;;13.50;74.10;;;;;;9168510;19;20018;-70
2023/09/26 02:32:49;;;;;;;7.82;4.93;;;13.50;74.10;;;;;;9167903;19;20025;-71
2023/09/26 02:35:57;;;;;;;9.43;4.60;;;13.50;74.10;;;;;;9170091;19;20493;-67
2023/09/26 02:39:03;;;;;;;7.15;4.07;;;13.50;74.10;;;;;;9171200;19;20952;-69
2023/09/26 02:42:14;;;;;;;8.88;5.45;;;13.50;74.10;;;;;;9170036;19;20022;-68
2023/09/26 02:45:20;;;;;;;11.77;5.22;;;13.50;74.20;;;;;;9176999;19;20014;-69
2023/09/26 02:48:27;;;;;;;7.18;4.50;;;13.40;74.20;;;;;;9177900;19;20372;-69
2023/09/26 02:51:32;;;;;;;12.02;4.38;;;13.40;74.20;;;;;;9179163;19;20011;-70
2023/09/26 02:54:40;;;;;;;7.32;4.40;;;13.40;74.20;;;;;;9169392;19;20017;-70
2023/09/26 02:57:49;;;;;;;7.47;5.15;;;13.40;74.30;;;;;;9173027;19;20455;-67
2023/09/26 03:00:57;;;;;;;13.50;5.18;;;13.40;74.30;;;;;;9168481;19;20484;-67
2023/09/26 03:04:02;;;;;;;11.18;4.43;;;13.40;74.30;;;;;;9168945;19;20522;-70
2023/09/26 03:07:09;;;;;;;7.32;4.55;;;13.40;74.40;;;;;;9164375;19;20032;-67
2023/09/26 03:10:17;;;;;;;8.00;4.32;;;13.40;74.50;;;;;;9166652;19;20359;-69
2023/09/26 03:13:27;;;;;;;8.55;5.10;;;13.40;75.30;;;;;;9165613;19;20814;-68
2023/09/26 03:16:33;;;;;;;6.85;4.93;;;13.20;79.30;;;;;;9167412;19;20484;-66
2023/09/26 03:19:41;;;;;;;6.88;4.75;;;13.40;75.90;;;;;;9168856;19;20019;-70
2023/09/26 03:22:46;;;;;;;7.40;4.72;;;13.40;78.20;;;;;;9165155;19;20478;-66
2023/09/26 03:25:54;;;;;;;7.82;5.13;;;13.50;77.90;;;;;;9165072;19;20014;-70
2023/09/26 03:29:02;;;;;;;10.25;5.15;;;13.30;74.70;;;;;;9166405;19;20569;-68
2023/09/26 03:32:10;;;;;;;9.40;5.78;;;13.30;74.80;;;;;;9163861;19;20007;-69
2023/09/26 03:35:16;;;;;;;8.23;5.18;;;13.40;75.00;;;;;;9167193;19;20040;-68
2023/09/26 03:38:23;;;;;;;9.38;5.25;;;13.30;75.70;;;;;;9164519;19;20035;-68
2023/09/26 03:41:29;;;;;;;7.22;5.05;;;13.50;79.20;;;;;;9165003;19;20019;-67
2023/09/26 03:44:38;;;;;;;6.35;4.45;;;12.10;74.40;;;;;;9164985;19;20066;-69
2023/09/26 03:47:44;;;;;;;6.50;4.57;;;13.30;74.90;;;;;;9164990;19;20021;-68
2023/09/26 03:50:51;;;;;;;9.52;5.07;;;13.40;75.00;;;;;;9164233;19;20010;-69
2023/09/26 03:53:57;;;;;;;11.00;5.35;;;13.30;75.00;;;;;;9160649;19;20031;-69
2023/09/26 03:57:05;;;;;;;14.63;5.78;;;13.30;75.60;;;;;;9164565;19;20046;-69
2023/09/26 04:00:16;;;;;;;8.30;5.65;;;13.30;75.10;;;;;;9164519;19;20019;-70
2023/09/26 04:03:24;;;;;;;7.63;5.30;;;13.30;75.10;;;;;;9164828;19;20135;-70
2023/09/26 04:06:30;;;;;;;6.65;4.80;;;13.30;75.20;;;;;;9163941;19;20476;-69
2023/09/26 04:09:37;;;;;;;9.00;5.00;;;13.30;75.60;;;;;;9166234;19;20025;-70
2023/09/26 04:12:42;;;;;;;7.25;4.95;;;13.40;78.10;;;;;;9162170;19;20100;-69
2023/09/26 04:15:53;;;;;;;9.48;5.32;;;13.30;75.00;;;;;;9163008;19;20030;-69
2023/09/26 04:19:01;;;;;;;8.07;4.93;;;13.30;75.10;;;;;;9165191;19;20011;-67
2023/09/26 04:22:08;;;;;;;6.43;4.13;;;13.30;75.00;;;;;;9163639;19;20363;-67
2023/09/26 04:25:14;;;;;;;10.38;5.50;;;13.40;75.10;;;;;;9165422;19;20028;-68
2023/09/26 04:28:21;;;;;;;8.95;5.38;;;13.30;75.00;;;;;;9162993;19;20022;-66
2023/09/26 04:31:29;;;;;;;8.65;5.20;;;13.30;75.10;;;;;;9163873;19;20595;-69
2023/09/26 04:34:37;;;;;;;8.52;5.53;;;13.30;75.20;;;;;;9162108;19;20014;-69
2023/09/26 04:37:42;;;;;;;8.55;4.88;;;13.30;75.20;;;;;;9164449;19;20021;-69
2023/09/26 04:40:49;;;;;;;8.55;5.13;;;13.30;75.30;;;;;;9164299;19;20015;-69
2023/09/26 04:43:55;;;;;;;8.45;5.20;;;13.30;75.30;;;;;;9161854;19;20526;-71
2023/09/26 04:47:05;;;;;;;9.02;5.57;;;13.30;75.30;;;;;;9165350;19;20025;-70
2023/09/26 04:50:11;;;;;;;7.10;5.03;;;13.30;75.40;;;;;;9160836;19;20105;-68
2023/09/26 04:53:18;;;;;;;8.02;5.47;;;13.30;75.40;;;;;;9155701;19;20022;-71
2023/09/26 04:56:24;;;;;;;8.48;5.15;;;13.30;75.40;;;;;;9165485;19;20026;-69
2023/09/26 04:59:31;;;;;;;7.63;4.90;;;13.30;75.50;;;;;;9161783;19;20025;-68
2023/09/26 05:02:39;;;;;;;8.25;5.32;;;13.30;75.60;;;;;;9162035;19;20030;-68
2023/09/26 05:05:47;;;;;;;7.40;5.30;;;13.30;75.60;;;;;;9158878;19;20018;-67
2023/09/26 05:08:52;;;;;;;7.65;5.70;;;13.40;75.70;;;;;;9162098;19;20471;-71
2023/09/26 05:11:59;;;;;;;13.52;6.07;;;13.40;75.60;;;;;;9161173;19;20018;-68
2023/09/26 05:15:06;;;;;;;10.18;5.93;;;13.40;75.70;;;;;;9161531;19;20018;-69
2023/09/26 05:18:16;;;;;;;8.13;5.28;;;13.40;75.70;;;;;;9160660;19;20007;-69
2023/09/26 05:21:22;;;;;;;8.52;5.15;;;13.40;75.70;;;;;;9163945;19;20048;-69
2023/09/26 05:24:29;;;;;;;11.77;5.70;;;13.50;75.80;;;;;;9163116;19;20023;-65
2023/09/26 05:27:34;;;;;;;7.47;5.13;;;13.50;75.80;;;;;;9162814;19;20025;-68
2023/09/26 05:30:44;;;;;;;7.47;5.00;;;13.50;75.80;;;;;;9169859;19;20019;-67
2023/09/26 05:33:53;;;;;;;11.93;5.85;;;13.50;76.10;;;;;;9169013;19;20820;-68
2023/09/26 05:37:01;;;;;;;11.35;5.80;;;13.60;76.90;;;;;;9170701;19;20018;-70
2023/09/26 05:40:09;;;;;;;14.55;5.88;;;13.60;77.70;;;;;;9172590;19;20094;-68
2023/09/26 05:43:16;;;;;;;7.95;5.30;;;13.60;76.70;;;;;;9170216;19;20010;-69
2023/09/26 05:46:22;;;;;;;10.15;6.00;;;13.70;76.40;;;;;;9172563;19;20566;-67
2023/09/26 05:49:32;;;;;;;9.75;6.00;;;13.60;75.70;;;;;;9171519;19;20018;-68
2023/09/26 05:52:38;;;;;;;8.60;5.75;;;13.60;75.70;;;;;;9170780;19;20021;-69
2023/09/26 05:55:45;;;;;;;10.60;6.22;;;13.60;75.70;;;;;;9167737;19;20010;-66
2023/09/26 05:58:51;;;;;;;8.73;6.03;;;13.60;75.80;;;;;;9169751;19;20570;-71
2023/09/26 06:01:59;;;;;;;12.75;6.20;;;13.60;76.20;;;;;;9174228;19;20495;-70
2023/09/26 06:05:11;;;;;;;11.80;5.68;;;13.70;75.80;;;;;;9167581;19;20416;-68
2023/09/26 06:08:19;;;;;;;;;;;13.70;75.90;;;;;;9169846;19;20021;-68
2023/09/26 06:11:24;;;;;;;10.27;5.75;;;13.70;75.60;;;;;;9170010;19;19928;-69
2023/09/26 06:14:32;;;;;;;8.82;5.82;;;13.70;75.60;;;;;;9166620;19;20070;-64
2023/09/26 06:17:39;;;;;;;11.98;6.07;;;13.80;75.90;;;;;;9169790;19;20526;-68
2023/09/26 06:20:50;;;;;;;10.20;6.22;;;13.80;75.90;;;;;;9168651;19;20543;-69
2023/09/26 06:23:55;;;;;;;11.38;5.80;;;13.80;76.00;;;;;;9168557;19;20078;-67
2023/09/26 06:27:02;;;;;;;13.77;7.05;;;13.90;76.30;;;;;;9168031;19;20014;-68
2023/09/26 06:30:09;;;;;;;12.90;6.30;;;13.90;76.20;;;;;;9166818;19;20078;-70
2023/09/26 06:33:16;;;;;;;14.27;7.00;;;13.90;76.10;;;;;;9166158;19;20022;-69
2023/09/26 06:36:25;;;;;;;10.38;6.35;;;14.00;76.20;;;;;;9169410;19;20045;-70
2023/09/26 06:39:33;;;;;;;11.93;6.78;;;14.00;76.00;;;;;;9165284;19;20018;-69
2023/09/26 06:42:38;;;;;;;10.52;6.65;;;14.00;76.00;;;;;;9166995;19;20022;-69
2023/09/26 06:45:49;;;;;;;11.80;6.55;;;14.10;76.00;;;;;;9165023;19;20095;-68
2023/09/26 06:48:55;;;;;;;8.65;6.38;;;14.10;76.10;;;;;;9168655;19;20018;-70
2023/09/26 06:52:05;;;;;;;9.82;6.20;;;14.10;76.10;;;;;;9168461;19;20018;-66
2023/09/26 06:55:12;;;;;;;14.15;5.78;;;14.20;76.20;;;;;;9160769;19;20011;-67
2023/09/26 06:58:19;;;;;;;11.35;6.60;;;14.20;76.20;;;;;;9168404;19;20026;-67
2023/09/26 07:01:25;;;;;;;11.45;6.93;;;14.20;76.10;;;;;;9167313;19;20025;-70
2023/09/26 07:04:33;;;;;;;16.92;8.32;;;14.30;76.20;;;;;;9167202;19;20018;-66
2023/09/26 07:07:41;;;;;;;15.05;7.80;;;14.30;76.20;;;;;;9165903;19;20052;-67
2023/09/26 07:10:49;;;;;;;9.77;6.90;;;14.40;76.40;;;;;;9164388;19;20026;-67
2023/09/26 07:13:55;;;;;;;13.63;7.32;;;14.40;76.30;;;;;;9165717;19;20038;-67
2023/09/26 07:17:03;;;;;;;10.50;6.45;;;14.40;76.30;;;;;;9166149;19;20459;-66
2023/09/26 07:20:13;;;;;;;15.93;6.70;;;14.50;76.30;;;;;;9167607;19;20023;-67
2023/09/26 07:23:23;;;;;;;10.50;6.60;;;14.50;76.40;;;;;;9165175;19;20014;-70
2023/09/26 07:26:29;;;;;;;9.57;6.63;;;14.60;76.30;;;;;;9167366;19;20022;-66
2023/09/26 07:29:36;;;;;;;14.63;7.55;;;14.60;76.30;;;;;;9166855;19;20022;-66
2023/09/26 07:32:42;;;;;;;12.07;8.13;;;14.70;76.40;;;;;;9164871;19;20014;-66
2023/09/26 07:35:53;;;;;;;10.15;6.80;;;14.70;76.40;;;;;;9163622;19;20022;-67
2023/09/26 07:39:01;;;;;;;8.60;6.95;;;14.80;76.50;;;;;;9164218;19;20362;-68
2023/09/26 07:42:08;;;;;;;13.13;6.68;;;14.80;76.50;;;;;;9164838;19;20491;-69
2023/09/26 07:45:16;;;;;;;7.70;6.32;;;14.90;76.50;;;;;;9166512;19;20006;-69
2023/09/26 07:48:24;;;;;;;10.48;6.78;;;14.90;76.50;;;;;;9165922;19;20021;-67
2023/09/26 07:51:29;;;;;;;15.32;7.20;;;15.00;76.70;;;;;;9161239;19;20518;-67
2023/09/26 07:54:39;;;;;;;20.73;8.50;;;15.10;76.60;;;;;;9160883;19;20364;-67
2023/09/26 07:57:44;;;;;;;13.32;7.75;;;15.10;76.60;;;;;;9166944;19;20044;-68
2023/09/26 08:00:52;;;;;;;16.30;7.93;;;15.20;76.60;;;;;;9166567;19;20022;-66
2023/09/26 08:03:57;;;;;;;13.43;7.38;;;15.30;76.60;;;;;;9163522;19;20010;-67
2023/09/26 08:07:05;;;;;;;11.73;7.80;;;15.40;76.60;;;;;;9163597;19;20033;-68
2023/09/26 08:10:13;;;;;;;17.60;9.20;;;15.50;76.80;;;;;;9163108;19;20010;-67
2023/09/26 08:13:21;;;;;;;15.10;7.85;;;15.60;76.80;;;;;;9165095;19;20014;-66
2023/09/26 08:16:26;;;;;;;15.23;8.57;;;15.70;76.80;;;;;;9162964;19;20020;-68
2023/09/26 08:19:34;;;;;;;15.48;8.45;;;15.80;76.80;;;;;;9161527;19;20021;-66
2023/09/26 08:22:41;;;;;;;18.58;8.20;;;15.90;76.90;;;;;;9162385;19;20520;-68
2023/09/26 08:25:51;;;;;;;12.57;7.65;;;16.00;76.90;;;;;;9163273;19;20030;-67
2023/09/26 08:28:56;;;;;;;15.25;7.50;;;16.20;76.90;;;;;;9165356;19;20022;-69
2023/09/26 08:32:04;;;;;;;9.63;6.55;;;16.30;76.90;;;;;;9162692;19;20397;-67
2023/09/26 08:35:11;;;;;;;10.43;7.63;;;16.50;76.80;;;;;;9162274;19;20021;-68
2023/09/26 08:38:18;;;;;;;18.50;7.80;;;16.60;76.70;;;;;;9163079;19;20018;-68
2023/09/26 08:41:26;;;;;;;20.45;7.88;;;16.80;76.70;;;;;;9162023;19;20302;-66
2023/09/26 08:44:34;;;;;;;14.38;7.15;;;16.90;76.60;;;;;;9164038;19;20018;-66
2023/09/26 08:47:42;;;;;;;16.17;6.65;;;17.10;76.60;;;;;;9162968;19;20677;-68
2023/09/26 08:50:50;;;;;;;12.85;7.25;;;17.20;76.40;;;;;;9160715;19;20014;-66
2023/09/26 08:53:55;;;;;;;10.63;6.95;;;17.40;76.50;;;;;;9160400;19;20018;-64
2023/09/26 08:57:05;;;;;;;15.35;7.68;;;17.50;76.40;;;;;;9162092;19;20026;-68
2023/09/26 09:00:13;;;;;;;11.57;7.32;;;17.60;76.30;;;;;;9163445;19;20420;-67
2023/09/26 09:03:21;;;;;;;13.07;7.35;;;17.80;76.10;;;;;;9166027;19;20014;-68
2023/09/26 09:06:26;;;;;;;10.95;6.20;;;17.90;76.10;;;;;;9172006;19;20019;-68
2023/09/26 09:09:34;;;;;;;11.52;5.55;;;18.00;76.00;;;;;;9178810;19;20485;-67
2023/09/26 09:12:44;;;;;;;13.15;6.10;;;18.20;76.10;;;;;;9171072;19;20430;-67
2023/09/26 09:15:51;;;;;;;12.90;6.72;;;18.20;75.90;;;;;;9172817;19;20472;-67
2023/09/26 09:18:58;;;;;;;11.00;5.63;;;18.40;76.30;;;;;;9176986;19;20483;-66
2023/09/26 09:22:17;;;;;;;10.90;5.43;;;18.50;76.30;;;;;;9176162;19;20006;-66
2023/09/26 09:25:32;;;;;;;9.80;5.78;;;18.60;76.30;;;;;;9173353;19;20010;-68
2023/09/26 09:28:42;;;;;;;11.95;5.47;;;18.80;77.10;;;;;;9171859;19;20585;-67
2023/09/26 09:31:47;;;;;;;8.32;4.80;;;18.80;77.00;;;;;;9172076;19;20018;-66
2023/09/26 09:34:55;;;;;;;19.95;7.07;;;19.00;77.30;;;;;;9169655;19;20018;-67
2023/09/26 09:38:00;;;;;;;10.38;5.47;;;19.20;77.30;;;;;;9171129;19;20023;-66
2023/09/26 09:41:08;;;;;;;12.73;5.47;;;19.30;77.30;;;;;;9171559;19;20482;-67
2023/09/26 09:44:16;;;;;;;9.23;5.30;;;19.50;77.20;;;;;;9172113;19;20011;-66
2023/09/26 09:47:26;;;;;;;13.55;4.93;;;19.80;77.20;;;;;;9171327;19;20018;-68
2023/09/26 09:50:34;;;;;;;11.57;5.22;;;19.70;76.90;;;;;;9167361;19;20044;-67
2023/09/26 09:53:45;;;;;;;10.73;6.50;;;19.90;77.50;;;;;;9164447;19;20480;-67
2023/09/26 09:56:54;;;;;;;19.92;5.70;;;20.00;77.90;;;;;;9167661;19;20479;-70
2023/09/26 10:00:08;;;;;;;12.98;4.95;;;20.30;82.00;;;;;;9170238;19;20022;-67
2023/09/26 10:03:14;;;;;;;12.48;5.00;;;20.20;74.70;;;;;;9168539;19;20018;-67
2023/09/26 10:06:23;;;;;;;14.00;4.95;;;20.30;74.80;;;;;;9167613;19;20054;-68
2023/09/26 10:09:31;;;;;;;11.18;4.80;;;20.50;74.60;;;;;;9167978;19;20014;-69
2023/09/26 10:12:40;;;;;;;9.73;4.93;;;20.50;74.60;;;;;;9169221;19;20022;-67
2023/09/26 10:16:17;;;;;;;7.32;4.68;;;20.70;74.80;;;;;;9165387;19;20043;-68
2023/09/26 10:19:28;;;;;;;10.57;5.05;;;20.90;75.50;;;;;;9169566;19;20014;-66
2023/09/26 10:23:12;;;;;;;8.40;4.20;;;21.00;75.80;;;;;;9168390;19;20014;-65
2023/09/26 10:26:20;;;;;;;13.10;4.32;;;21.20;75.40;;;;;;9166969;19;20019;-67
2023/09/26 10:29:27;;;;;;;13.80;6.15;;;21.30;75.70;;;;;;9169600;19;20015;-67
2023/09/26 10:32:42;;;;;;;9.40;4.70;;;21.50;77.20;;;;;;9167918;19;20017;-67
2023/09/26 10:35:47;;;;;;;8.32;4.32;;;21.60;77.50;;;;;;9162081;19;20029;-69
2023/09/26 10:39:00;;;;;;;14.38;4.68;;;21.80;80.70;;;;;;9167737;19;20515;-67
2023/09/26 10:42:13;;;;;;;12.02;4.38;;;22.00;79.40;;;;;;9161767;19;20650;-66
2023/09/26 10:45:44;;;;;;;7.47;4.70;;;22.20;77.90;;;;;;9164261;19;20015;-68
2023/09/26 10:48:52;;;;;;;7.88;4.50;;;22.30;74.20;;;;;;9166363;19;20397;-68
2023/09/26 10:52:02;;;;;;;7.15;4.50;;;22.40;77.90;;;;;;9165904;19;20026;-68
2023/09/26 10:55:08;;;;;;;10.32;4.13;;;22.50;74.20;;;;;;9162531;19;20011;-69
2023/09/26 10:58:22;;;;;;;9.80;4.20;;;22.60;74.30;;;;;;9165900;19;20017;-70
2023/09/26 11:01:39;;;;;;;12.00;4.47;;;22.80;75.30;;;;;;9163394;19;20547;-69
2023/09/26 11:04:50;;;;;;;5.63;3.50;;;22.90;76.50;;;;;;9162496;19;20013;-71
2023/09/26 11:07:56;;;;;;;9.23;4.15;;;23.00;78.10;;;;;;9154946;19;20031;-69
2023/09/26 11:11:04;;;;;;;5.88;3.30;;;23.20;79.00;;;;;;9161771;19;20025;-69
2023/09/26 11:14:09;;;;;;;8.82;3.70;;;23.30;78.30;;;;;;9164498;19;20057;-68
2023/09/26 11:17:17;;;;;;;6.13;3.47;;;24.20;79.30;;;;;;9163211;19;20027;-70
2023/09/26 11:20:29;;;;;;;6.68;3.10;;;23.70;76.60;;;;;;9163566;19;20523;-67
2023/09/26 11:23:38;;;;;;;11.60;3.60;;;23.80;75.80;;;;;;9163787;19;20023;-69
2023/09/26 11:26:43;;;;;;;4.50;3.30;;;23.90;78.90;;;;;;9161153;19;20014;-68
2023/09/26 11:29:51;;;;;;;8.10;3.42;;;24.20;74.90;;;;;;9164806;19;20018;-69
2023/09/26 11:32:56;;;;;;;9.07;3.72;;;24.10;75.30;;;;;;9163840;19;20451;-70
2023/09/26 11:36:07;;;;;;;6.00;2.78;;;23.30;70.90;;;;;;9159471;19;20014;-67
2023/09/26 11:39:15;;;;;;;5.72;3.13;;;24.20;68.50;;;;;;9156326;19;20110;-70
2023/09/26 11:42:23;;;;;;;5.70;2.95;;;24.30;68.70;;;;;;9159258;19;20929;-71
2023/09/26 11:45:30;;;;;;;5.95;2.83;;;24.40;73.70;;;;;;9157030;19;20023;-71
2023/09/26 11:48:43;;;;;;;8.52;2.60;;;24.30;67.20;;;;;;9159013;19;20022;-67
2023/09/26 11:51:54;;;;;;;7.10;2.60;;;24.40;68.00;;;;;;9164231;19;20019;-68
2023/09/26 11:55:03;;;;;;;7.63;2.88;;;24.50;67.60;;;;;;9160345;19;20022;-73
2023/09/26 11:58:08;;;;;;;5.40;2.78;;;24.50;67.70;;;;;;9165051;19;20010;-70
2023/09/26 12:01:16;;;;;;;9.63;3.08;;;24.60;67.60;;;;;;9168599;19;20014;-70
2023/09/26 12:04:24;;;;;;;8.30;3.08;;;24.60;66.70;;;;;;9167699;19;20014;-67
2023/09/26 12:07:34;;;;;;;4.63;2.53;;;24.60;66.50;;;;;;9165846;19;20019;-67
2023/09/26 12:10:40;;;;;;;2.60;1.73;;;24.70;66.50;;;;;;9165269;19;20489;-70
2023/09/26 12:13:50;;;;;;;5.03;2.17;;;25.00;67.40;;;;;;9164096;19;20018;-70
2023/09/26 12:16:56;;;;;;;3.38;1.90;;;24.80;66.30;;;;;;9162547;19;20015;-67
2023/09/26 12:20:09;;;;;;;3.63;1.80;;;24.90;65.90;;;;;;9166340;19;20014;-72
2023/09/26 12:23:17;;;;;;;4.38;2.05;;;24.90;65.70;;;;;;9169380;19;20089;-71
2023/09/26 12:26:24;;;;;;;3.60;1.98;;;25.00;65.40;;;;;;9168803;19;20018;-70
2023/09/26 12:29:30;;;;;;;3.95;2.10;;;24.90;65.90;;;;;;9166913;19;20022;-69
2023/09/26 12:32:38;;;;;;;4.97;2.22;;;25.00;65.30;;;;;;9167721;19;20050;-69
2023/09/26 12:35:43;;;;;;;6.53;2.35;;;25.00;65.10;;;;;;9166224;19;20025;-69
2023/09/26 12:38:53;;;;;;;3.45;1.95;;;25.00;65.00;;;;;;9169247;19;20017;-70
2023/09/26 12:41:58;;;;;;;6.18;1.80;;;25.00;64.70;;;;;;9173629;19;20014;-67
2023/09/26 12:45:07;;;;;;;3.60;2.35;;;25.00;64.90;;;;;;9172066;19;20054;-67
2023/09/26 12:48:12;;;;;;;4.70;2.60;;;25.00;64.80;;;;;;9176169;19;20015;-72
2023/09/26 12:51:19;;;;;;;4.47;2.30;;;25.10;64.70;;;;;;9175238;19;20539;-69
2023/09/26 12:54:27;;;;;;;3.53;2.10;;;25.00;64.60;;;;;;9168125;19;20060;-68
2023/09/26 12:57:35;;;;;;;5.00;2.45;;;25.10;64.30;;;;;;9169636;19;20014;-66
2023/09/26 13:00:40;;;;;;;5.35;2.17;;;25.10;64.30;;;;;;9172040;19;20034;-71
2023/09/26 13:03:50;;;;;;;3.28;1.75;;;25.10;64.20;;;;;;9171258;19;20595;-66
2023/09/26 13:06:55;;;;;;;3.22;1.83;;;25.10;64.00;;;;;;9172831;19;20090;-69
2023/09/26 13:10:05;;;;;;;6.03;2.20;;;25.00;63.80;;;;;;9172624;19;20018;-71
2023/09/26 13:13:11;;;;;;;3.13;1.90;;;25.00;63.50;;;;;;9170731;19;20577;-66
2023/09/26 13:16:18;;;;;;;3.50;1.85;;;25.00;63.50;;;;;;9169979;19;20019;-70
2023/09/26 13:19:25;;;;;;;3.88;2.40;;;25.00;63.50;;;;;;9172508;19;20514;-66
2023/09/26 13:22:32;;;;;;;8.23;2.25;;;25.00;63.40;;;;;;9171654;19;20412;-69
2023/09/26 13:25:40;;;;;;;4.57;2.35;;;24.90;63.30;;;;;;9170557;19;20032;-70
2023/09/26 13:28:48;;;;;;;5.60;2.10;;;24.80;63.20;;;;;;9169652;19;20045;-69
2023/09/26 13:31:53;;;;;;;3.53;1.92;;;24.80;63.20;;;;;;9171674;19;20485;-66
2023/09/26 13:35:03;;;;;;;4.30;2.40;;;24.80;63.20;;;;;;9172323;19;20428;-69
2023/09/26 13:38:10;;;;;;;6.82;2.30;;;24.70;63.00;;;;;;9168200;19;20033;-69
2023/09/26 13:41:20;;;;;;;5.57;2.30;;;24.70;63.70;;;;;;9172508;19;20082;-69
2023/09/26 13:44:25;;;;;;;9.30;2.40;;;24.70;63.00;;;;;;9169040;19;20106;-70
2023/09/26 13:47:33;;;;;;;4.72;1.75;;;24.60;63.00;;;;;;9169663;19;20014;-67
2023/09/26 13:50:38;;;;;;;4.68;2.75;;;24.60;63.00;;;;;;9165387;19;20010;-70
2023/09/26 13:53:46;;;;;;;4.57;2.03;;;24.60;62.90;;;;;;9165900;19;20735;-66
2023/09/26 13:56:55;;;;;;;7.90;2.75;;;24.60;62.90;;;;;;9167426;19;20052;-66
2023/09/26 14:00:02;;;;;;;3.72;2.00;;;24.60;62.80;;;;;;9170244;19;20015;-67
2023/09/26 14:03:15;;;;;;;4.90;2.50;;;24.60;62.80;;;;;;9169203;19;20049;-71
2023/09/26 14:06:23;;;;;;;6.85;2.40;;;24.60;62.90;;;;;;9169901;19;20017;-68
2023/09/26 14:09:28;;;;;;;7.40;2.50;;;24.50;62.90;;;;;;9168578;19;20015;-65
2023/09/26 14:12:39;;;;;;;6.47;2.40;;;24.50;62.80;;;;;;9169763;19;20021;-71
2023/09/26 14:15:44;;;;;;;7.20;2.25;;;24.50;62.70;;;;;;9170101;19;20022;-66
2023/09/26 14:18:52;;;;;;;8.23;2.67;;;24.50;62.90;;;;;;9165534;19;20033;-70
2023/09/26 14:21:57;;;;;;;4.53;2.00;;;24.40;62.80;;;;;;9170025;19;20026;-66
2023/09/26 14:25:04;;;;;;;7.90;2.65;;;24.40;62.80;;;;;;9169082;19;20818;-68
2023/09/26 14:28:12;;;;;;;5.63;2.30;;;24.40;62.80;;;;;;9169119;19;20049;-68
2023/09/26 14:31:20;;;;;;;5.53;2.17;;;24.40;62.80;;;;;;9168451;19;20018;-70
2023/09/26 14:34:25;;;;;;;6.07;2.38;;;24.40;62.80;;;;;;9166964;19;20062;-70
2023/09/26 14:37:33;;;;;;;5.07;2.60;;;24.30;62.80;;;;;;9166280;19;20463;-69
2023/09/26 14:40:38;;;;;;;5.88;2.55;;;24.30;62.90;;;;;;9166843;19;20022;-70
2023/09/26 14:43:48;;;;;;;7.32;2.40;;;24.30;63.10;;;;;;9168308;19;20495;-68
2023/09/26 14:46:54;;;;;;;5.70;3.08;;;24.30;63.10;;;;;;9167936;19;20018;-66
2023/09/26 14:50:01;;;;;;;6.82;3.13;;;24.20;63.20;;;;;;9165585;19;20275;-67
2023/09/26 14:53:07;;;;;;;9.23;3.20;;;24.20;63.30;;;;;;9165623;19;20011;-70
2023/09/26 14:56:18;;;;;;;9.35;4.07;;;24.20;63.30;;;;;;9162257;19;20022;-66
2023/09/26 14:59:26;;;;;;;12.43;3.47;;;24.10;63.20;;;;;;9164091;19;20018;-69
2023/09/26 15:02:34;;;;;;;6.78;2.83;;;24.10;63.30;;;;;;9162179;19;20021;-70
2023/09/26 15:05:39;;;;;;;5.72;2.85;;;24.10;63.30;;;;;;9166633;19;20050;-69
2023/09/26 15:08:47;;;;;;;10.50;2.80;;;24.10;63.30;;;;;;9166908;19;20015;-71
2023/09/26 15:11:52;;;;;;;6.93;3.15;;;24.10;63.40;;;;;;9163888;19;20064;-68
2023/09/26 15:15:02;;;;;;;5.07;2.50;;;24.00;63.30;;;;;;9163587;19;20010;-68
2023/09/26 15:18:08;;;;;;;7.82;3.20;;;24.00;63.30;;;;;;9166425;19;20388;-68
2023/09/26 15:21:15;;;;;;;5.55;2.50;;;23.90;63.30;;;;;;9165881;19;20019;-69
2023/09/26 15:24:21;;;;;;;7.20;2.90;;;23.90;63.50;;;;;;9165834;19;20015;-71
2023/09/26 15:27:28;;;;;;;6.95;3.03;;;23.90;63.60;;;;;;9165851;19;20014;-69
2023/09/26 15:30:36;;;;;;;4.57;2.60;;;23.90;63.70;;;;;;9170340;19;20025;-69
2023/09/26 15:33:43;;;;;;;6.72;2.70;;;23.80;63.70;;;;;;9166562;19;20014;-69
2023/09/26 15:36:49;;;;;;;9.27;2.97;;;23.80;63.70;;;;;;9167226;19;20010;-69
2023/09/26 15:39:56;;;;;;;7.75;2.60;;;23.80;63.80;;;;;;9161064;19;20700;-66
2023/09/26 15:43:01;;;;;;;10.80;3.45;;;23.70;63.80;;;;;;9157903;19;20035;-69
2023/09/26 15:46:11;;;;;;;8.95;2.78;;;23.70;63.80;;;;;;9160084;19;20018;-69
2023/09/26 15:49:17;;;;;;;8.68;3.10;;;23.70;63.80;;;;;;9157959;19;20428;-68
2023/09/26 15:52:24;;;;;;;10.70;3.45;;;23.60;63.80;;;;;;9157562;19;20540;-68
2023/09/26 15:55:30;;;;;;;11.10;3.75;;;23.60;64.00;;;;;;9154522;19;20620;-68
2023/09/26 15:58:38;;;;;;;9.55;3.20;;;23.50;64.00;;;;;;9156286;19;20354;-66
2023/09/26 16:01:46;;;;;;;9.30;2.70;;;23.50;64.10;;;;;;9159363;19;20021;-68
2023/09/26 16:04:53;;;;;;;6.85;3.17;;;23.50;64.30;;;;;;9158404;19;20022;-67
2023/09/26 16:07:59;;;;;;;13.82;3.20;;;23.40;64.30;;;;;;9159770;19;20014;-68
2023/09/26 16:11:06;;;;;;;9.88;2.97;;;23.40;64.50;;;;;;9156790;19;20017;-69
2023/09/26 16:14:12;;;;;;;12.45;3.78;;;23.30;64.60;;;;;;9156370;19;20022;-70